createdAt,value
2023-05-10T00:00:18.739Z,0.50
2023-05-10T00:01:18.476Z,0.50
2023-05-10T00:02:18.510Z,0.50
2023-05-10T00:03:18.601Z,0.39
2023-05-10T00:04:18.743Z,0.34
2023-05-10T00:05:18.595Z,0.34
2023-05-10T00:06:18.624Z,0.34
2023-05-10T00:07:18.690Z,0.34
2023-05-10T00:08:18.724Z,0.38
2023-05-10T00:09:18.744Z,0.40
2023-05-10T00:10:18.902Z,0.44
2023-05-10T00:11:20.371Z,0.50
2023-05-10T00:12:18.854Z,0.50
2023-05-10T00:13:18.939Z,0.50
2023-05-10T00:14:18.879Z,0.50
2023-05-10T00:15:18.879Z,0.50
2023-05-10T00:16:18.898Z,0.50
2023-05-10T00:17:18.889Z,0.50
2023-05-10T00:18:18.900Z,0.50
2023-05-10T00:19:18.909Z,0.50
2023-05-10T00:20:19.167Z,0.50
2023-05-10T00:21:18.943Z,0.51
2023-05-10T00:22:18.963Z,0.50
2023-05-10T00:23:18.953Z,0.50
2023-05-10T00:24:18.971Z,0.51
2023-05-10T00:25:18.994Z,0.50
2023-05-10T00:26:19.007Z,0.51
2023-05-10T00:27:19.001Z,0.51
2023-05-10T00:28:19.044Z,0.51
2023-05-10T00:29:19.036Z,0.51
2023-05-10T00:30:19.291Z,0.51
2023-05-10T00:31:19.041Z,0.50
2023-05-10T00:32:19.209Z,0.51
2023-05-10T00:33:19.053Z,0.51
2023-05-10T00:34:19.763Z,0.51
2023-05-10T00:35:19.044Z,0.51
2023-05-10T00:36:19.050Z,0.51
2023-05-10T00:37:19.064Z,0.51
2023-05-10T00:38:19.082Z,0.50
2023-05-10T00:39:19.117Z,0.50
2023-05-10T00:40:19.266Z,0.51
2023-05-10T00:41:19.095Z,0.51
2023-05-10T00:42:19.092Z,0.50
2023-05-10T00:43:19.112Z,0.50
2023-05-10T00:44:19.109Z,0.51
2023-05-10T00:45:19.150Z,0.50
2023-05-10T00:46:19.185Z,0.50
2023-05-10T00:47:19.172Z,0.51
2023-05-10T00:48:19.225Z,0.51
2023-05-10T00:49:19.264Z,0.51
2023-05-10T00:50:19.326Z,0.51
2023-05-10T00:51:19.376Z,0.51
2023-05-10T00:52:19.420Z,0.50
2023-05-10T00:53:19.491Z,0.51
2023-05-10T00:54:19.519Z,0.51
2023-05-10T00:55:19.564Z,0.51
2023-05-10T00:56:19.613Z,0.50
2023-05-10T00:57:19.664Z,0.51
2023-05-10T00:58:19.717Z,0.52
2023-05-10T00:59:19.768Z,0.52
2023-05-10T01:00:19.813Z,0.51
2023-05-10T01:01:19.986Z,0.50
2023-05-10T01:02:20.002Z,0.51
2023-05-10T01:03:20.138Z,0.51
2023-05-10T01:04:20.024Z,0.52
2023-05-10T01:05:20.125Z,0.51
2023-05-10T01:06:20.137Z,0.50
2023-05-10T01:07:20.178Z,0.50
2023-05-10T01:08:20.246Z,0.50
2023-05-10T01:09:20.283Z,0.51
2023-05-10T01:10:20.332Z,0.52
2023-05-10T01:11:20.394Z,0.51
2023-05-10T01:12:20.505Z,0.52
2023-05-10T01:13:20.551Z,0.52
2023-05-10T01:14:20.547Z,0.52
2023-05-10T01:15:20.604Z,0.50
2023-05-10T01:16:20.714Z,0.51
2023-05-10T01:17:20.753Z,0.51
2023-05-10T01:18:20.764Z,0.51
2023-05-10T01:19:20.807Z,0.51
2023-05-10T01:20:20.859Z,0.52
2023-05-10T01:21:20.915Z,0.51
2023-05-10T01:22:20.978Z,0.52
2023-05-10T01:23:21.021Z,0.52
2023-05-10T01:24:21.068Z,0.51
2023-05-10T01:25:21.119Z,0.52
2023-05-10T01:26:21.169Z,0.51
2023-05-10T01:27:21.214Z,0.51
2023-05-10T01:28:21.265Z,0.51
2023-05-10T01:29:21.314Z,0.51
2023-05-10T01:31:20.456Z,0.51
2023-05-10T01:32:21.464Z,0.52
2023-05-10T01:33:21.573Z,0.51
2023-05-10T01:34:21.570Z,0.52
2023-05-10T01:35:21.613Z,0.52
2023-05-10T01:36:21.672Z,0.52
2023-05-10T01:37:21.731Z,0.52
2023-05-10T01:38:21.779Z,0.52
2023-05-10T01:39:21.831Z,0.52
2023-05-10T01:40:21.885Z,0.52
2023-05-10T01:41:21.952Z,0.51
2023-05-10T01:42:21.978Z,0.51
2023-05-10T01:43:22.032Z,0.51
2023-05-10T01:44:22.090Z,0.52
2023-05-10T01:45:22.138Z,0.53
2023-05-10T01:46:22.218Z,0.51
2023-05-10T01:47:22.252Z,0.52
2023-05-10T01:48:22.309Z,0.51
2023-05-10T01:49:22.392Z,0.51
2023-05-10T01:50:22.422Z,0.51
2023-05-10T01:51:22.461Z,0.51
2023-05-10T01:52:22.554Z,0.51
2023-05-10T01:53:22.586Z,0.51
2023-05-10T01:54:22.670Z,0.51
2023-05-10T01:55:22.676Z,0.52
2023-05-10T01:56:22.711Z,0.51
2023-05-10T01:57:22.766Z,0.51
2023-05-10T01:58:22.811Z,0.52
2023-05-10T01:59:22.871Z,0.52
2023-05-10T02:00:22.920Z,0.51
2023-05-10T02:01:23.036Z,0.50
2023-05-10T02:02:23.048Z,0.51
2023-05-10T02:03:23.128Z,0.52
2023-05-10T02:04:23.149Z,0.52
2023-05-10T02:05:23.223Z,0.52
2023-05-10T02:06:23.300Z,0.52
2023-05-10T02:07:23.296Z,0.51
2023-05-10T02:08:23.367Z,0.52
2023-05-10T02:09:23.404Z,0.52
2023-05-10T02:10:23.463Z,0.51
2023-05-10T02:11:23.530Z,0.52
2023-05-10T02:12:23.578Z,0.52
2023-05-10T02:13:23.675Z,0.51
2023-05-10T02:14:23.674Z,0.51
2023-05-10T02:15:23.729Z,0.52
2023-05-10T02:16:23.856Z,0.51
2023-05-10T02:17:23.853Z,0.52
2023-05-10T02:18:23.870Z,0.52
2023-05-10T02:19:23.930Z,0.52
2023-05-10T02:20:23.975Z,0.51
2023-05-10T02:21:24.066Z,0.51
2023-05-10T02:22:24.085Z,0.51
2023-05-10T02:23:24.149Z,0.52
2023-05-10T02:24:24.187Z,0.53
2023-05-10T02:25:24.260Z,0.51
2023-05-10T02:26:24.301Z,0.52
2023-05-10T02:27:24.356Z,0.51
2023-05-10T02:28:24.397Z,0.51
2023-05-10T02:29:24.444Z,0.52
2023-05-10T02:30:24.498Z,0.52
2023-05-10T02:31:24.551Z,0.52
2023-05-10T02:32:24.638Z,0.53
2023-05-10T02:33:24.655Z,0.51
2023-05-10T02:34:24.700Z,0.52
2023-05-10T02:35:24.809Z,0.53
2023-05-10T02:36:24.811Z,0.52
2023-05-10T02:37:24.981Z,0.52
2023-05-10T02:38:24.927Z,0.52
2023-05-10T02:39:24.969Z,0.51
2023-05-10T02:40:26.801Z,0.53
2023-05-10T02:41:25.033Z,0.53
2023-05-10T02:42:25.036Z,0.52
2023-05-10T02:43:25.048Z,0.52
2023-05-10T02:44:25.067Z,0.52
2023-05-10T02:45:25.071Z,0.53
2023-05-10T02:46:25.113Z,0.51
2023-05-10T02:47:25.065Z,0.52
2023-05-10T02:48:25.072Z,0.51
2023-05-10T02:49:25.088Z,0.52
2023-05-10T02:50:25.091Z,0.52
2023-05-10T02:51:25.103Z,0.51
2023-05-10T02:52:25.134Z,0.53
2023-05-10T02:53:25.146Z,0.52
2023-05-10T02:54:25.129Z,0.51
2023-05-10T02:55:25.140Z,0.51
2023-05-10T02:56:25.139Z,0.52
2023-05-10T02:57:25.153Z,0.52
2023-05-10T02:58:25.156Z,0.52
2023-05-10T02:59:25.182Z,0.52
2023-05-10T03:00:25.168Z,0.53
2023-05-10T03:01:25.197Z,0.51
2023-05-10T03:02:25.246Z,0.51
2023-05-10T03:03:25.203Z,0.52
2023-05-10T03:04:25.286Z,0.52
2023-05-10T03:05:25.216Z,0.51
2023-05-10T03:06:25.214Z,0.51
2023-05-10T03:07:25.240Z,0.52
2023-05-10T03:08:25.221Z,0.53
2023-05-10T03:09:25.247Z,0.52
2023-05-10T03:10:25.224Z,0.51
2023-05-10T03:11:25.245Z,0.51
2023-05-10T03:12:25.276Z,0.52
2023-05-10T03:13:25.367Z,0.52
2023-05-10T03:14:25.392Z,0.52
2023-05-10T03:15:25.467Z,0.52
2023-05-10T03:16:25.543Z,0.52
2023-05-10T03:17:25.620Z,0.52
2023-05-10T03:18:25.610Z,0.52
2023-05-10T03:19:25.679Z,0.52
2023-05-10T03:20:25.717Z,0.52
2023-05-10T03:21:25.770Z,0.52
2023-05-10T03:22:25.842Z,0.52
2023-05-10T03:23:25.887Z,0.52
2023-05-10T03:24:25.960Z,0.53
2023-05-10T03:25:26.032Z,0.52
2023-05-10T03:26:26.076Z,0.52
2023-05-10T03:27:26.135Z,0.52
2023-05-10T03:28:26.180Z,0.52
2023-05-10T03:29:26.230Z,0.52
2023-05-10T03:30:26.307Z,0.51
2023-05-10T03:31:26.399Z,0.53
2023-05-10T03:32:26.441Z,0.51
2023-05-10T03:33:26.461Z,0.51
2023-05-10T03:34:26.519Z,0.52
2023-05-10T03:35:26.577Z,0.53
2023-05-10T03:36:26.627Z,0.51
2023-05-10T03:37:26.694Z,0.52
2023-05-10T03:38:28.366Z,0.51
2023-05-10T03:39:26.749Z,0.51
2023-05-10T03:40:26.760Z,0.51
2023-05-10T03:41:26.786Z,0.51
2023-05-10T03:42:26.772Z,0.51
2023-05-10T03:43:26.782Z,0.51
2023-05-10T03:44:26.791Z,0.52
2023-05-10T03:45:26.804Z,0.52
2023-05-10T03:46:26.860Z,0.52
2023-05-10T03:47:26.813Z,0.52
2023-05-10T03:48:26.797Z,0.52
2023-05-10T03:49:26.807Z,0.52
2023-05-10T03:50:26.801Z,0.52
2023-05-10T03:51:26.816Z,0.51
2023-05-10T03:52:26.818Z,0.51
2023-05-10T03:53:26.818Z,0.52
2023-05-10T03:54:26.839Z,0.52
2023-05-10T03:55:26.826Z,0.52
2023-05-10T03:56:26.882Z,0.51
2023-05-10T03:57:26.992Z,0.52
2023-05-10T03:58:27.010Z,0.52
2023-05-10T03:59:27.076Z,0.52
2023-05-10T04:00:27.130Z,0.52
2023-05-10T04:01:27.192Z,0.52
2023-05-10T04:02:27.351Z,0.52
2023-05-10T04:03:27.349Z,0.51
2023-05-10T04:04:27.374Z,0.52
2023-05-10T04:05:27.439Z,0.51
2023-05-10T04:06:27.550Z,0.52
2023-05-10T04:07:27.571Z,0.51
2023-05-10T04:08:27.620Z,0.51
2023-05-10T04:09:27.676Z,0.52
2023-05-10T04:10:27.732Z,0.52
2023-05-10T04:11:27.796Z,0.52
2023-05-10T04:12:27.853Z,0.52
2023-05-10T04:13:28.006Z,0.52
2023-05-10T04:14:27.984Z,0.51
2023-05-10T04:15:28.059Z,0.52
2023-05-10T04:16:28.137Z,0.51
2023-05-10T04:17:28.191Z,0.52
2023-05-10T04:18:28.223Z,0.52
2023-05-10T04:19:28.266Z,0.51
2023-05-10T04:20:28.326Z,0.51
2023-05-10T04:21:28.404Z,0.52
2023-05-10T04:22:28.448Z,0.52
2023-05-10T04:23:28.499Z,0.52
2023-05-10T04:24:28.561Z,0.52
2023-05-10T04:25:28.616Z,0.51
2023-05-10T04:26:28.679Z,0.51
2023-05-10T04:27:28.739Z,0.52
2023-05-10T04:28:28.835Z,0.51
2023-05-10T04:29:28.890Z,0.52
2023-05-10T04:30:28.907Z,0.52
2023-05-10T04:31:29.074Z,0.51
2023-05-10T04:32:29.074Z,0.52
2023-05-10T04:33:29.124Z,0.51
2023-05-10T04:34:29.166Z,0.52
2023-05-10T04:35:29.206Z,0.51
2023-05-10T04:36:29.299Z,0.52
2023-05-10T04:37:29.325Z,0.50
2023-05-10T04:38:29.387Z,0.51
2023-05-10T04:39:29.441Z,0.51
2023-05-10T04:40:29.504Z,0.51
2023-05-10T04:41:29.623Z,0.50
2023-05-10T04:42:29.628Z,0.52
2023-05-10T04:43:29.685Z,0.51
2023-05-10T04:44:29.757Z,0.51
2023-05-10T04:45:29.842Z,0.51
2023-05-10T04:46:29.981Z,0.50
2023-05-10T04:47:29.961Z,0.51
2023-05-10T04:48:30.004Z,0.51
2023-05-10T04:49:30.077Z,0.51
2023-05-10T04:50:30.134Z,0.51
2023-05-10T04:51:30.200Z,0.51
2023-05-10T04:52:30.297Z,0.51
2023-05-10T04:53:30.328Z,0.52
2023-05-10T04:54:30.404Z,0.51
2023-05-10T04:55:30.460Z,0.52
2023-05-10T04:56:30.514Z,0.51
2023-05-10T04:57:30.594Z,0.52
2023-05-10T04:58:30.644Z,0.52
2023-05-10T04:59:30.707Z,0.51
2023-05-10T05:00:30.764Z,0.50
2023-05-10T05:01:30.898Z,0.51
2023-05-10T05:02:30.981Z,0.52
2023-05-10T05:03:31.040Z,0.52
2023-05-10T05:04:31.055Z,0.52
2023-05-10T05:05:31.072Z,0.52
2023-05-10T05:06:31.137Z,0.51
2023-05-10T05:07:31.187Z,0.51
2023-05-10T05:08:31.250Z,0.50
2023-05-10T05:09:31.322Z,0.51
2023-05-10T05:10:31.384Z,0.52
2023-05-10T05:11:31.451Z,0.52
2023-05-10T05:12:31.507Z,0.52
2023-05-10T05:13:31.599Z,0.51
2023-05-10T05:14:31.627Z,0.51
2023-05-10T05:15:31.688Z,0.51
2023-05-10T05:16:31.882Z,0.52
2023-05-10T05:17:31.886Z,0.52
2023-05-10T05:18:31.873Z,0.51
2023-05-10T05:19:32.383Z,0.51
2023-05-10T05:20:32.386Z,0.52
2023-05-10T05:21:32.052Z,0.54
2023-05-10T05:22:32.113Z,0.52
2023-05-10T05:23:32.191Z,0.52
2023-05-10T05:24:32.238Z,0.53
2023-05-10T05:25:32.305Z,0.52
2023-05-10T05:26:32.367Z,0.51
2023-05-10T05:27:32.423Z,0.53
2023-05-10T05:28:32.473Z,0.52
2023-05-10T05:29:32.524Z,0.51
2023-05-10T05:30:32.583Z,0.52
2023-05-10T05:31:32.695Z,0.53
2023-05-10T05:32:32.782Z,0.52
2023-05-10T05:33:32.776Z,0.53
2023-05-10T05:34:32.815Z,0.53
2023-05-10T05:35:32.878Z,0.54
2023-05-10T05:36:32.931Z,0.54
2023-05-10T05:37:32.982Z,0.54
2023-05-10T05:38:33.039Z,0.55
2023-05-10T05:39:33.094Z,0.55
2023-05-10T05:40:33.138Z,0.55
2023-05-10T05:41:33.203Z,0.56
2023-05-10T05:42:33.261Z,0.56
2023-05-10T05:43:33.665Z,0.57
2023-05-10T05:44:33.383Z,0.57
2023-05-10T05:45:33.451Z,0.58
2023-05-10T05:46:33.474Z,0.59
2023-05-10T05:47:33.564Z,0.59
2023-05-10T05:48:33.595Z,0.59
2023-05-10T05:49:33.912Z,0.59
2023-05-10T05:50:33.886Z,0.59
2023-05-10T05:51:33.727Z,0.59
2023-05-10T05:52:33.783Z,0.60
2023-05-10T05:53:33.830Z,0.64
2023-05-10T05:54:33.898Z,0.67
2023-05-10T05:55:33.920Z,0.67
2023-05-10T05:56:33.966Z,0.66
2023-05-10T05:57:33.995Z,0.68
2023-05-10T05:58:34.412Z,0.71
2023-05-10T05:59:34.389Z,0.72
2023-05-10T06:00:34.130Z,0.73
2023-05-10T06:01:34.144Z,0.78
2023-05-10T06:02:34.317Z,0.79
2023-05-10T06:03:34.245Z,0.82
2023-05-10T06:04:34.446Z,0.89
2023-05-10T06:05:34.275Z,0.88
2023-05-10T06:06:34.271Z,0.93
2023-05-10T06:07:34.394Z,0.98
2023-05-10T06:08:34.446Z,1.01
2023-05-10T06:09:34.340Z,1.07
2023-05-10T06:10:34.372Z,1.09
2023-05-10T06:11:34.374Z,1.11
2023-05-10T06:12:34.393Z,1.16
2023-05-10T06:13:34.543Z,1.18
2023-05-10T06:14:35.370Z,1.21
2023-05-10T06:15:34.376Z,1.26
2023-05-10T06:16:34.457Z,1.30
2023-05-10T06:17:34.399Z,1.33
2023-05-10T06:18:34.365Z,1.34
2023-05-10T06:19:34.438Z,1.38
2023-05-10T06:20:34.378Z,1.42
2023-05-10T06:21:34.400Z,1.47
2023-05-10T06:22:34.402Z,1.50
2023-05-10T06:23:34.393Z,1.50
2023-05-10T06:24:34.904Z,1.53
2023-05-10T06:25:34.448Z,1.60
2023-05-10T06:26:34.475Z,1.61
2023-05-10T06:27:34.497Z,1.64
2023-05-10T06:28:34.514Z,1.70
2023-05-10T06:29:34.908Z,1.70
2023-05-10T06:30:34.600Z,1.74
2023-05-10T06:31:34.705Z,1.77
2023-05-10T06:32:34.743Z,1.81
2023-05-10T06:33:34.742Z,1.84
2023-05-10T06:34:34.905Z,1.87
2023-05-10T06:35:34.882Z,1.91
2023-05-10T06:36:35.958Z,1.96
2023-05-10T06:37:35.028Z,2.00
2023-05-10T06:38:35.406Z,2.03
2023-05-10T06:39:35.143Z,2.07
2023-05-10T06:40:35.213Z,2.08
2023-05-10T06:41:35.280Z,2.13
2023-05-10T06:42:35.328Z,2.14
2023-05-10T06:43:35.408Z,2.19
2023-05-10T06:44:35.920Z,2.27
2023-05-10T06:45:35.517Z,2.35
2023-05-10T06:46:35.592Z,2.39
2023-05-10T06:47:38.698Z,2.32
2023-05-10T06:48:35.634Z,2.33
2023-05-10T06:49:35.919Z,2.33
2023-05-10T06:50:35.931Z,2.33
2023-05-10T06:51:35.638Z,2.33
2023-05-10T06:52:35.643Z,2.33
2023-05-10T06:53:35.682Z,2.31
2023-05-10T06:54:35.925Z,2.32
2023-05-10T06:55:35.644Z,2.30
2023-05-10T06:56:36.647Z,2.32
2023-05-10T06:57:35.645Z,2.31
2023-05-10T06:58:51.539Z,2.30
2023-05-10T06:59:35.745Z,2.31
2023-05-10T07:00:38.898Z,2.32
2023-05-10T07:01:35.756Z,2.31
2023-05-10T07:02:35.677Z,2.32
2023-05-10T07:03:35.658Z,2.33
2023-05-10T07:04:35.960Z,2.34
2023-05-10T07:05:35.878Z,2.32
2023-05-10T07:06:35.662Z,2.35
2023-05-10T07:07:35.686Z,2.34
2023-05-10T07:08:35.668Z,2.36
2023-05-10T07:09:36.005Z,2.31
2023-05-10T07:10:35.665Z,2.32
2023-05-10T07:11:36.679Z,2.28
2023-05-10T07:12:35.808Z,2.31
2023-05-10T07:13:35.721Z,2.26
2023-05-10T07:14:35.680Z,2.25
2023-05-10T07:15:35.685Z,2.21
2023-05-10T07:16:35.928Z,2.20
2023-05-10T07:17:35.790Z,2.21
2023-05-10T07:18:35.801Z,2.17
2023-05-10T07:19:35.732Z,2.21
2023-05-10T07:20:35.724Z,2.19
2023-05-10T07:21:35.792Z,2.16
2023-05-10T07:22:35.739Z,2.12
2023-05-10T07:23:35.754Z,2.16
2023-05-10T07:24:35.764Z,2.13
2023-05-10T07:25:35.823Z,2.13
2023-05-10T07:26:35.927Z,2.14
2023-05-10T07:27:35.788Z,2.12
2023-05-10T07:28:35.945Z,2.11
2023-05-10T07:29:35.786Z,2.11
2023-05-10T07:30:35.824Z,2.10
2023-05-10T07:31:35.811Z,2.10
2023-05-10T07:32:36.044Z,2.08
2023-05-10T07:33:35.827Z,2.09
2023-05-10T07:34:35.963Z,2.05
2023-05-10T07:35:35.853Z,2.04
2023-05-10T07:36:35.865Z,2.05
2023-05-10T07:37:35.879Z,2.00
2023-05-10T07:38:35.853Z,2.00
2023-05-10T07:39:36.079Z,2.04
2023-05-10T07:40:35.916Z,2.02
2023-05-10T07:41:36.221Z,2.05
2023-05-10T07:42:35.925Z,2.13
2023-05-10T07:43:35.917Z,2.13
2023-05-10T07:44:35.971Z,2.14
2023-05-10T07:45:35.947Z,2.18
2023-05-10T07:46:35.955Z,2.16
2023-05-10T07:47:35.958Z,2.17
2023-05-10T07:48:35.970Z,2.21
2023-05-10T07:49:35.960Z,2.28
2023-05-10T07:50:35.965Z,2.27
2023-05-10T07:51:35.967Z,2.37
2023-05-10T07:52:36.388Z,2.43
2023-05-10T07:53:35.996Z,2.30
2023-05-10T07:54:36.454Z,2.26
2023-05-10T07:55:36.012Z,2.24
2023-05-10T07:56:39.255Z,2.28
2023-05-10T07:57:36.027Z,2.29
2023-05-10T07:58:37.059Z,2.29
2023-05-10T07:59:36.459Z,2.29
2023-05-10T08:00:36.106Z,2.32
2023-05-10T08:01:36.448Z,2.29
2023-05-10T08:02:36.301Z,2.31
2023-05-10T08:03:36.233Z,2.33
2023-05-10T08:04:36.228Z,2.34
2023-05-10T08:05:36.118Z,2.30
2023-05-10T08:06:36.441Z,2.33
2023-05-10T08:07:36.131Z,2.33
2023-05-10T08:08:36.132Z,2.33
2023-05-10T08:09:36.145Z,2.30
2023-05-10T08:10:36.156Z,2.22
2023-05-10T08:11:36.164Z,2.26
2023-05-10T08:12:36.185Z,2.25
2023-05-10T08:13:36.166Z,2.25
2023-05-10T08:14:36.166Z,2.25
2023-05-10T08:15:36.245Z,2.21
2023-05-10T08:16:36.180Z,2.23
2023-05-10T08:17:36.211Z,2.24
2023-05-10T08:18:36.202Z,2.23
2023-05-10T08:19:36.213Z,2.25
2023-05-10T08:20:36.184Z,2.18
2023-05-10T08:21:36.189Z,2.22
2023-05-10T08:22:36.210Z,2.18
2023-05-10T08:23:36.201Z,2.16
2023-05-10T08:24:36.209Z,2.17
2023-05-10T08:25:36.969Z,2.16
2023-05-10T08:26:36.182Z,2.13
2023-05-10T08:27:36.245Z,2.16
2023-05-10T08:28:36.212Z,2.12
2023-05-10T08:29:48.937Z,2.13
2023-05-10T08:30:36.195Z,2.14
2023-05-10T08:31:36.262Z,2.15
2023-05-10T08:32:36.229Z,2.16
2023-05-10T08:33:36.201Z,2.15
2023-05-10T08:34:36.207Z,2.13
2023-05-10T08:35:36.445Z,2.14
2023-05-10T08:36:36.209Z,2.09
2023-05-10T08:37:36.244Z,2.10
2023-05-10T08:38:36.228Z,2.07
2023-05-10T08:39:36.481Z,2.09
2023-05-10T08:40:43.703Z,2.06
2023-05-10T08:41:36.502Z,2.07
2023-05-10T08:42:37.218Z,2.09
2023-05-10T08:43:36.246Z,2.10
2023-05-10T08:44:36.290Z,2.08
2023-05-10T08:45:37.531Z,2.06
2023-05-10T08:46:36.324Z,2.06
2023-05-10T08:47:36.311Z,2.05
2023-05-10T08:48:36.261Z,2.02
2023-05-10T08:49:36.268Z,2.00
2023-05-10T08:50:36.452Z,2.00
2023-05-10T08:51:36.277Z,1.97
2023-05-10T08:52:36.301Z,1.97
2023-05-10T08:53:36.328Z,1.96
2023-05-10T08:54:36.499Z,1.96
2023-05-10T08:55:36.371Z,1.93
2023-05-10T08:56:36.399Z,1.95
2023-05-10T08:57:36.421Z,1.94
2023-05-10T08:58:36.457Z,1.91
2023-05-10T08:59:36.466Z,1.88
2023-05-10T09:00:36.523Z,1.93
2023-05-10T09:01:36.505Z,1.89
2023-05-10T09:02:36.556Z,1.89
2023-05-10T09:03:36.577Z,1.88
2023-05-10T09:04:37.062Z,1.87
2023-05-10T09:05:36.894Z,1.88
2023-05-10T09:06:36.615Z,1.86
2023-05-10T09:07:36.664Z,1.86
2023-05-10T09:08:36.671Z,1.84
2023-05-10T09:09:36.970Z,1.84
2023-05-10T09:10:36.713Z,1.85
2023-05-10T09:11:36.743Z,1.85
2023-05-10T09:12:36.791Z,1.86
2023-05-10T09:13:36.788Z,1.81
2023-05-10T09:14:37.433Z,1.84
2023-05-10T09:15:36.967Z,1.82
2023-05-10T09:16:36.936Z,1.83
2023-05-10T09:17:36.919Z,1.78
2023-05-10T09:18:36.936Z,1.80
2023-05-10T09:19:36.936Z,1.82
2023-05-10T09:20:37.465Z,1.80
2023-05-10T09:21:37.092Z,1.78
2023-05-10T09:22:37.035Z,1.78
2023-05-10T09:23:37.041Z,1.78
2023-05-10T09:24:37.067Z,1.77
2023-05-10T09:25:37.471Z,1.77
2023-05-10T09:26:37.189Z,1.74
2023-05-10T09:27:37.162Z,1.75
2023-05-10T09:28:37.167Z,1.82
2023-05-10T09:29:37.494Z,2.21
2023-05-10T09:30:37.306Z,2.12
2023-05-10T09:31:38.326Z,2.08
2023-05-10T09:32:37.608Z,1.93
2023-05-10T09:33:40.549Z,1.73
2023-05-10T09:34:37.469Z,1.73
2023-05-10T09:35:38.473Z,1.80
2023-05-10T09:36:37.437Z,2.02
2023-05-10T09:37:37.370Z,2.01
2023-05-10T09:38:37.476Z,1.94
2023-05-10T09:39:37.394Z,1.48
2023-05-10T09:40:37.397Z,1.25
2023-05-10T09:41:37.400Z,1.10
2023-05-10T09:42:37.398Z,0.98
2023-05-10T09:43:37.476Z,0.94
2023-05-10T09:44:37.475Z,1.06
2023-05-10T09:45:39.117Z,1.16
2023-05-10T09:46:37.670Z,1.28
2023-05-10T09:47:37.553Z,1.54
2023-05-10T09:48:37.594Z,1.84
2023-05-10T09:49:37.979Z,2.01
2023-05-10T09:50:37.585Z,2.17
2023-05-10T09:51:37.662Z,2.26
2023-05-10T09:52:37.568Z,2.45
2023-05-10T09:53:37.980Z,2.54
2023-05-10T09:54:37.644Z,2.64
2023-05-10T09:55:37.591Z,2.71
2023-05-10T09:56:38.015Z,2.81
2023-05-10T09:57:37.589Z,2.94
2023-05-10T09:58:37.586Z,3.00
2023-05-10T09:59:37.599Z,3.15
2023-05-10T10:00:37.990Z,3.26
2023-05-10T10:01:37.798Z,3.38
2023-05-10T10:02:37.665Z,3.49
2023-05-10T10:03:37.618Z,3.57
2023-05-10T10:04:37.781Z,3.68
2023-05-10T10:05:37.997Z,3.89
2023-05-10T10:06:37.631Z,4.00
2023-05-10T10:07:37.644Z,4.15
2023-05-10T10:08:37.636Z,4.08
2023-05-10T10:09:37.637Z,3.91
2023-05-10T10:10:37.998Z,4.08
2023-05-10T10:11:37.650Z,4.16
2023-05-10T10:12:37.655Z,4.32
2023-05-10T10:13:37.929Z,4.41
2023-05-10T10:14:37.671Z,4.59
2023-05-10T10:15:38.016Z,4.64
2023-05-10T10:16:43.688Z,4.73
2023-05-10T10:17:37.785Z,4.75
2023-05-10T10:18:38.046Z,4.82
2023-05-10T10:19:38.293Z,4.91
2023-05-10T10:20:38.028Z,5.17
2023-05-10T10:21:37.758Z,5.50
2023-05-10T10:22:37.761Z,5.67
2023-05-10T10:23:37.781Z,5.78
2023-05-10T10:24:37.759Z,5.88
2023-05-10T10:25:37.996Z,5.89
2023-05-10T10:26:38.782Z,6.07
2023-05-10T10:27:37.769Z,6.05
2023-05-10T10:28:37.771Z,6.28
2023-05-10T10:29:37.785Z,6.31
2023-05-10T10:30:37.995Z,6.30
2023-05-10T10:31:37.883Z,6.41
2023-05-10T10:32:37.756Z,6.37
2023-05-10T10:33:37.810Z,6.55
2023-05-10T10:34:37.773Z,6.36
2023-05-10T10:35:37.998Z,6.24
2023-05-10T10:36:37.834Z,6.47
2023-05-10T10:37:37.760Z,6.45
2023-05-10T10:38:37.770Z,6.72
2023-05-10T10:39:38.086Z,6.74
2023-05-10T10:40:37.778Z,6.83
2023-05-10T10:41:38.013Z,6.58
2023-05-10T10:42:37.839Z,6.90
2023-05-10T10:43:38.878Z,6.77
2023-05-10T10:44:37.908Z,6.88
2023-05-10T10:45:37.927Z,6.94
2023-05-10T10:46:37.976Z,7.10
2023-05-10T10:47:38.015Z,6.83
2023-05-10T10:48:37.997Z,7.15
2023-05-10T10:49:38.043Z,6.85
2023-05-10T10:50:38.322Z,7.04
2023-05-10T10:51:38.506Z,7.02
2023-05-10T10:52:38.186Z,7.01
2023-05-10T10:53:38.129Z,7.00
2023-05-10T10:54:38.153Z,7.01
2023-05-10T10:55:38.172Z,6.86
2023-05-10T10:56:38.229Z,6.88
2023-05-10T10:57:38.514Z,7.05
2023-05-10T10:58:38.229Z,7.20
2023-05-10T10:59:38.243Z,7.50
2023-05-10T11:00:38.293Z,7.22
2023-05-10T11:01:38.790Z,7.19
2023-05-10T11:02:38.299Z,7.51
2023-05-10T11:03:38.317Z,7.52
2023-05-10T11:04:38.621Z,7.71
2023-05-10T11:05:38.349Z,8.45
2023-05-10T11:06:38.385Z,8.15
2023-05-10T11:07:38.400Z,7.74
2023-05-10T11:08:38.454Z,7.75
2023-05-10T11:09:38.518Z,7.55
2023-05-10T11:10:38.453Z,7.90
2023-05-10T11:11:38.508Z,7.40
2023-05-10T11:12:38.510Z,7.46
2023-05-10T11:13:38.546Z,7.46
2023-05-10T11:14:38.571Z,7.61
2023-05-10T11:15:38.605Z,7.57
2023-05-10T11:16:39.137Z,7.49
2023-05-10T11:17:38.704Z,7.51
2023-05-10T11:18:38.753Z,7.22
2023-05-10T11:19:38.753Z,7.35
2023-05-10T11:20:38.799Z,7.36
2023-05-10T11:21:38.843Z,7.32
2023-05-10T11:22:38.895Z,7.18
2023-05-10T11:23:38.946Z,7.19
2023-05-10T11:24:39.089Z,7.01
2023-05-10T11:25:39.052Z,7.05
2023-05-10T11:26:39.105Z,6.98
2023-05-10T11:27:39.153Z,7.01
2023-05-10T11:28:39.197Z,6.99
2023-05-10T11:29:39.252Z,6.95
2023-05-10T11:30:39.336Z,6.89
2023-05-10T11:31:39.518Z,6.74
2023-05-10T11:32:39.457Z,6.68
2023-05-10T11:33:39.488Z,6.58
2023-05-10T11:34:39.564Z,6.63
2023-05-10T11:35:41.756Z,6.51
2023-05-10T11:36:39.616Z,6.52
2023-05-10T11:37:39.613Z,6.53
2023-05-10T11:38:39.651Z,6.47
2023-05-10T11:39:39.603Z,6.41
2023-05-10T11:40:39.641Z,6.44
2023-05-10T11:41:41.053Z,6.25
2023-05-10T11:42:40.018Z,6.26
2023-05-10T11:43:39.606Z,6.27
2023-05-10T11:44:39.621Z,6.25
2023-05-10T11:45:39.619Z,6.14
2023-05-10T11:46:39.676Z,6.08
2023-05-10T11:47:42.071Z,6.08
2023-05-10T11:48:39.628Z,6.09
2023-05-10T11:49:39.636Z,6.09
2023-05-10T11:50:39.635Z,6.03
2023-05-10T11:51:39.640Z,5.94
2023-05-10T11:52:39.647Z,5.96
2023-05-10T11:53:39.640Z,5.88
2023-05-10T11:54:39.632Z,5.87
2023-05-10T11:55:39.637Z,5.85
2023-05-10T11:56:39.677Z,5.82
2023-05-10T11:57:39.653Z,5.74
2023-05-10T11:58:40.025Z,5.70
2023-05-10T11:59:41.714Z,5.73
2023-05-10T12:00:39.666Z,5.74
2023-05-10T12:01:40.032Z,5.73
2023-05-10T12:02:39.799Z,5.65
2023-05-10T12:03:39.882Z,5.58
2023-05-10T12:04:39.729Z,5.53
2023-05-10T12:05:41.592Z,5.49
2023-05-10T12:06:39.780Z,5.50
2023-05-10T12:07:39.729Z,5.51
2023-05-10T12:08:39.807Z,5.46
2023-05-10T12:09:44.159Z,5.39
2023-05-10T12:10:39.766Z,5.51
2023-05-10T12:11:42.501Z,5.54
2023-05-10T12:12:39.805Z,5.51
2023-05-10T12:13:39.779Z,5.52
2023-05-10T12:14:39.794Z,5.51
2023-05-10T12:15:39.795Z,5.43
2023-05-10T12:16:39.842Z,5.35
2023-05-10T12:17:41.970Z,5.29
2023-05-10T12:18:39.833Z,5.29
2023-05-10T12:19:39.888Z,5.30
2023-05-10T12:20:39.831Z,5.25
2023-05-10T12:21:40.100Z,5.21
2023-05-10T12:22:39.845Z,5.14
2023-05-10T12:23:39.859Z,5.06
2023-05-10T12:24:39.862Z,5.05
2023-05-10T12:25:39.891Z,4.98
2023-05-10T12:26:40.035Z,4.89
2023-05-10T12:27:39.893Z,4.98
2023-05-10T12:28:39.904Z,4.89
2023-05-10T12:29:41.553Z,4.86
2023-05-10T12:30:39.892Z,5.03
2023-05-10T12:31:39.937Z,4.85
2023-05-10T12:32:39.920Z,4.76
2023-05-10T12:33:39.920Z,4.75
2023-05-10T12:34:39.974Z,4.66
2023-05-10T12:35:41.173Z,4.68
2023-05-10T12:36:39.919Z,4.69
2023-05-10T12:37:39.946Z,4.70
2023-05-10T12:38:39.934Z,4.64
2023-05-10T12:39:39.942Z,4.63
2023-05-10T12:40:39.951Z,4.57
2023-05-10T12:41:41.473Z,4.53
2023-05-10T12:42:40.068Z,4.54
2023-05-10T12:43:40.040Z,4.54
2023-05-10T12:44:39.987Z,4.53
2023-05-10T12:45:39.999Z,4.50
2023-05-10T12:46:40.022Z,4.34
2023-05-10T12:47:43.035Z,4.35
2023-05-10T12:48:40.000Z,4.36
2023-05-10T12:49:40.036Z,4.36
2023-05-10T12:50:40.020Z,4.33
2023-05-10T12:51:40.041Z,4.30
2023-05-10T12:52:39.991Z,4.23
2023-05-10T12:53:40.912Z,4.17
2023-05-10T12:54:40.037Z,4.29
2023-05-10T12:55:40.016Z,4.22
2023-05-10T12:56:40.031Z,4.15
2023-05-10T12:57:40.059Z,4.10
2023-05-10T12:58:40.069Z,4.06
2023-05-10T12:59:40.057Z,4.05
2023-05-10T13:00:40.135Z,3.98
2023-05-10T13:01:40.601Z,3.97
2023-05-10T13:02:40.173Z,4.00
2023-05-10T13:03:40.153Z,3.91
2023-05-10T13:04:40.642Z,3.89
2023-05-10T13:05:40.124Z,3.82
2023-05-10T13:06:40.118Z,3.82
2023-05-10T13:07:40.125Z,3.79
2023-05-10T13:08:40.129Z,3.76
2023-05-10T13:09:40.160Z,3.76
2023-05-10T13:10:40.153Z,3.72
2023-05-10T13:11:40.192Z,3.67
2023-05-10T13:12:40.165Z,3.66
2023-05-10T13:13:40.166Z,3.64
2023-05-10T13:14:40.173Z,3.60
2023-05-10T13:15:40.179Z,3.57
2023-05-10T13:16:40.268Z,3.56
2023-05-10T13:17:40.215Z,3.54
2023-05-10T13:18:40.281Z,3.52
2023-05-10T13:19:40.196Z,3.50